createdAt,value
2022-12-04T00:01:14.820Z,33.23
2022-12-04T00:03:42.071Z,37.27
2022-12-04T00:06:11.083Z,35.97
2022-12-04T00:08:39.043Z,34.17
2022-12-04T00:11:07.460Z,33.80
2022-12-04T00:13:36.580Z,31.43
2022-12-04T00:16:05.458Z,32.27
2022-12-04T00:18:32.792Z,32.40
2022-12-04T00:20:59.770Z,31.47
2022-12-04T00:23:26.627Z,34.57
2022-12-04T00:25:59.218Z,31.47
2022-12-04T00:28:26.094Z,33.77
2022-12-04T00:30:54.407Z,31.03
2022-12-04T00:33:21.260Z,31.33
2022-12-04T00:35:48.169Z,31.30
2022-12-04T00:38:15.055Z,30.90
2022-12-04T00:40:49.651Z,31.47
2022-12-04T00:43:16.711Z,31.53
2022-12-04T00:45:43.762Z,29.73
2022-12-04T00:48:12.239Z,31.57
2022-12-04T00:50:39.200Z,26.60
2022-12-04T00:53:06.219Z,25.90
2022-12-04T00:55:33.187Z,29.53
2022-12-04T00:58:00.371Z,26.10
2022-12-04T01:00:27.398Z,26.17
2022-12-04T01:02:54.338Z,26.00
2022-12-04T01:05:22.885Z,24.60
2022-12-04T01:07:49.811Z,25.60
2022-12-04T01:10:16.922Z,27.53
2022-12-04T01:12:43.799Z,25.13
2022-12-04T01:15:11.318Z,25.07
2022-12-04T01:17:38.180Z,27.10
2022-12-04T01:20:06.157Z,27.80
2022-12-04T01:22:34.387Z,25.93
2022-12-04T01:25:01.439Z,27.30
2022-12-04T01:27:28.309Z,27.30
2022-12-04T01:29:55.427Z,25.53
2022-12-04T01:32:22.568Z,27.50
2022-12-04T01:34:49.468Z,24.43
2022-12-04T01:37:16.544Z,24.50
2022-12-04T01:39:44.785Z,26.37
2022-12-04T01:42:14.361Z,26.73
2022-12-04T01:44:43.538Z,25.73
2022-12-04T01:47:11.105Z,27.40
2022-12-04T01:49:40.855Z,27.37
2022-12-04T01:52:13.906Z,29.00
2022-12-04T01:54:44.888Z,27.33
2022-12-04T01:57:14.634Z,28.50
2022-12-04T01:59:46.060Z,30.20
2022-12-04T02:06:18.683Z,28.77
2022-12-04T02:08:45.609Z,29.27
2022-12-04T02:11:22.204Z,29.10
2022-12-04T02:13:55.325Z,30.90
2022-12-04T02:16:29.609Z,28.67
2022-12-04T02:19:14.849Z,27.47
2022-12-04T02:21:45.733Z,26.83
2022-12-04T02:24:29.711Z,26.67
2022-12-04T02:27:02.397Z,27.40
2022-12-04T02:29:40.236Z,24.63
2022-12-04T02:32:16.212Z,26.77
2022-12-04T02:34:47.921Z,28.70
2022-12-04T02:37:18.983Z,26.90
2022-12-04T02:39:51.864Z,26.33
2022-12-04T02:42:23.503Z,26.57
2022-12-04T02:44:57.449Z,25.20
2022-12-04T02:47:25.683Z,25.13
2022-12-04T02:49:56.587Z,25.47
2022-12-04T02:52:31.776Z,22.13
2022-12-04T02:55:06.857Z,20.23
2022-12-04T02:57:40.410Z,25.37
2022-12-04T03:00:10.606Z,23.67
2022-12-04T03:02:43.512Z,24.23
2022-12-04T03:05:14.871Z,21.10
2022-12-04T03:07:45.869Z,23.13
2022-12-04T03:10:17.288Z,23.03
2022-12-04T03:12:49.363Z,21.77
2022-12-04T03:15:22.477Z,21.17
2022-12-04T03:17:53.539Z,20.20
2022-12-04T03:20:23.188Z,18.77
2022-12-04T03:22:55.166Z,20.93
2022-12-04T03:25:33.335Z,22.07
2022-12-04T03:28:04.575Z,20.13
2022-12-04T03:30:36.852Z,20.30
2022-12-04T03:33:11.319Z,21.03
2022-12-04T03:35:44.552Z,20.27
2022-12-04T03:38:17.023Z,22.53
2022-12-04T03:40:54.167Z,19.37
2022-12-04T03:43:26.453Z,18.97
2022-12-04T03:45:59.072Z,20.33
2022-12-04T03:48:31.702Z,19.87
2022-12-04T03:51:02.493Z,21.87
2022-12-04T03:53:36.179Z,19.20
2022-12-04T03:56:10.357Z,18.93
2022-12-04T03:58:41.440Z,19.23
2022-12-04T04:01:11.672Z,19.67
2022-12-04T04:03:42.662Z,19.37
2022-12-04T04:06:14.136Z,17.27
2022-12-04T04:08:45.558Z,20.03
2022-12-04T04:11:17.815Z,19.03
2022-12-04T04:14:07.027Z,18.77
2022-12-04T04:16:58.915Z,18.67
2022-12-04T04:19:48.321Z,17.07
2022-12-04T04:22:37.280Z,17.60
2022-12-04T04:25:07.709Z,17.17
2022-12-04T04:27:34.856Z,19.50
2022-12-04T04:30:02.021Z,17.37
2022-12-04T04:32:37.327Z,18.10
2022-12-04T04:35:14.370Z,17.80
2022-12-04T04:37:51.210Z,18.17
2022-12-04T04:40:23.757Z,18.50
2022-12-04T04:42:57.166Z,19.17
2022-12-04T04:45:29.409Z,16.33
2022-12-04T04:48:02.882Z,16.87
2022-12-04T04:50:31.887Z,16.23
2022-12-04T04:53:03.429Z,16.13
2022-12-04T04:55:34.445Z,16.47
2022-12-04T04:58:07.801Z,15.63
2022-12-04T05:00:34.891Z,16.80
2022-12-04T05:03:03.302Z,17.30
2022-12-04T05:05:30.187Z,15.23
2022-12-04T05:07:57.093Z,14.53
2022-12-04T05:10:24.301Z,15.17
2022-12-04T05:12:51.148Z,17.13
2022-12-04T05:15:18.059Z,15.50
2022-12-04T05:17:44.913Z,16.07
2022-12-04T05:20:13.436Z,15.43
2022-12-04T05:22:40.327Z,16.80
2022-12-04T05:25:08.053Z,15.00
2022-12-04T05:27:34.988Z,16.83
2022-12-04T05:30:01.932Z,14.97
2022-12-04T05:32:29.984Z,15.43
2022-12-04T05:34:58.113Z,15.50
2022-12-04T05:37:26.452Z,18.40
2022-12-04T05:39:54.053Z,16.80
2022-12-04T05:42:21.819Z,17.13
2022-12-04T05:44:49.659Z,14.43
2022-12-04T05:47:16.944Z,14.97
2022-12-04T05:49:43.903Z,17.17
2022-12-04T05:52:10.817Z,14.90
2022-12-04T05:54:39.427Z,14.73
2022-12-04T05:57:06.412Z,14.27
2022-12-04T05:59:33.638Z,15.70
2022-12-04T06:02:00.556Z,14.33
2022-12-04T06:04:28.041Z,16.97
2022-12-04T06:06:55.127Z,14.87
2022-12-04T06:09:22.160Z,15.53
2022-12-04T06:11:50.356Z,15.60
2022-12-04T06:14:17.383Z,17.13
2022-12-04T06:16:46.508Z,16.23
2022-12-04T06:19:16.283Z,15.77
2022-12-04T06:21:44.771Z,17.50
2022-12-04T06:24:14.349Z,16.83
2022-12-04T06:27:03.951Z,16.83
2022-12-04T06:29:29.431Z,17.83
2022-12-04T06:31:56.348Z,18.30
2022-12-04T06:34:23.243Z,17.10
2022-12-04T06:36:50.054Z,17.90
2022-12-04T06:39:18.934Z,17.47
2022-12-04T06:41:47.474Z,17.73
2022-12-04T06:44:14.578Z,16.77
2022-12-04T06:46:46.807Z,15.80
2022-12-04T06:49:14.701Z,17.10
2022-12-04T06:51:41.673Z,21.93
2022-12-04T06:54:10.398Z,19.20
2022-12-04T06:56:37.308Z,15.53
2022-12-04T06:59:04.750Z,14.90
2022-12-04T07:01:34.214Z,15.37
2022-12-04T07:04:04.371Z,13.97
2022-12-04T07:06:32.834Z,15.43
2022-12-04T07:09:02.093Z,14.03
2022-12-04T07:11:29.505Z,14.37
2022-12-04T07:13:56.801Z,16.70
2022-12-04T07:16:25.661Z,17.37
2022-12-04T07:18:56.708Z,16.00
2022-12-04T07:21:27.075Z,16.30
2022-12-04T07:23:56.080Z,18.07
2022-12-04T07:26:24.202Z,17.70
2022-12-04T07:28:51.084Z,19.30
2022-12-04T07:31:19.898Z,16.33
2022-12-04T07:33:47.821Z,17.20
2022-12-04T07:36:17.927Z,19.13
2022-12-04T07:38:46.813Z,16.23
2022-12-04T07:41:14.452Z,18.40
2022-12-04T07:43:41.916Z,17.27
2022-12-04T07:46:11.812Z,19.97
2022-12-04T07:48:38.709Z,16.37
2022-12-04T07:51:07.345Z,17.37
2022-12-04T07:53:35.450Z,18.67
2022-12-04T07:56:04.592Z,20.30
2022-12-04T07:58:31.838Z,19.57
2022-12-04T08:01:06.349Z,18.67
2022-12-04T08:03:33.532Z,18.73
2022-12-04T08:06:01.505Z,20.73
2022-12-04T08:08:28.648Z,20.77
2022-12-04T08:10:55.803Z,20.43
2022-12-04T08:13:24.099Z,20.47
2022-12-04T08:15:51.273Z,22.63
2022-12-04T08:18:18.503Z,19.17
2022-12-04T08:20:45.455Z,18.63
2022-12-04T08:23:12.380Z,19.77
2022-12-04T08:25:40.277Z,20.47
2022-12-04T08:28:07.554Z,17.70
2022-12-04T08:30:36.123Z,20.60
2022-12-04T08:33:03.116Z,17.27
2022-12-04T08:35:30.269Z,20.37
2022-12-04T08:37:57.223Z,18.20
2022-12-04T08:40:24.093Z,19.10
2022-12-04T08:42:50.945Z,17.80
2022-12-04T08:45:17.981Z,17.73
2022-12-04T08:47:50.751Z,17.83
2022-12-04T08:50:19.477Z,21.73
2022-12-04T08:52:46.414Z,18.33
2022-12-04T08:55:13.272Z,20.00
2022-12-04T08:57:40.155Z,20.50
2022-12-04T09:00:08.456Z,17.80
2022-12-04T09:02:35.490Z,20.00
2022-12-04T09:05:04.063Z,17.27
2022-12-04T09:07:30.989Z,18.37
2022-12-04T09:09:58.252Z,19.70
2022-12-04T09:12:25.398Z,18.57
2022-12-04T09:14:52.376Z,18.07
2022-12-04T09:17:19.258Z,18.53
2022-12-04T09:19:46.160Z,17.40
2022-12-04T09:22:14.422Z,18.50
2022-12-04T09:24:41.512Z,16.63
2022-12-04T09:27:14.287Z,17.30
2022-12-04T09:29:41.720Z,20.33
2022-12-04T09:32:08.763Z,18.60
2022-12-04T09:34:35.739Z,18.70
2022-12-04T09:37:02.600Z,18.63
2022-12-04T09:39:30.915Z,22.00
2022-12-04T09:42:11.586Z,19.77
2022-12-04T09:44:43.645Z,19.73
2022-12-04T09:47:19.744Z,18.53
2022-12-04T09:49:51.875Z,19.00
2022-12-04T09:52:30.934Z,20.60
2022-12-04T09:55:01.195Z,16.97
2022-12-04T09:57:41.207Z,19.07
2022-12-04T10:00:13.158Z,19.13
2022-12-04T10:02:42.747Z,18.83
2022-12-04T10:05:17.780Z,17.63
2022-12-04T10:07:52.300Z,18.77
2022-12-04T10:10:26.655Z,19.30
2022-12-04T10:13:01.383Z,19.00
2022-12-04T10:15:36.601Z,18.77
2022-12-04T10:18:15.809Z,18.73
2022-12-04T10:20:57.156Z,18.47
2022-12-04T10:23:34.342Z,19.47
2022-12-04T10:26:05.096Z,19.87
2022-12-04T10:28:36.689Z,22.30
2022-12-04T10:31:06.260Z,19.53
2022-12-04T10:33:38.317Z,20.93
2022-12-04T10:36:06.055Z,19.07
2022-12-04T10:38:40.397Z,17.83
2022-12-04T10:41:15.513Z,18.90
2022-12-04T10:43:44.207Z,18.87
2022-12-04T10:46:14.466Z,19.47
2022-12-04T10:48:44.011Z,22.97
2022-12-04T10:51:15.940Z,22.27
2022-12-04T10:53:43.885Z,20.40
2022-12-04T10:56:14.786Z,18.43
2022-12-04T10:58:41.941Z,22.10
2022-12-04T11:01:12.083Z,23.37
2022-12-04T11:03:39.758Z,19.37
2022-12-04T11:06:09.753Z,19.03
2022-12-04T11:08:39.546Z,22.57
2022-12-04T11:11:09.032Z,22.87
2022-12-04T11:13:37.616Z,22.60
2022-12-04T11:16:06.389Z,23.80
2022-12-04T11:18:46.104Z,23.20
2022-12-04T11:21:15.639Z,22.63
2022-12-04T11:23:44.905Z,21.77
2022-12-04T11:26:12.842Z,24.53
2022-12-04T11:28:51.872Z,25.20
2022-12-04T11:31:21.233Z,23.40
2022-12-04T11:33:51.837Z,22.03
2022-12-04T11:36:21.733Z,23.20
2022-12-04T11:38:49.561Z,22.73
2022-12-04T11:41:24.892Z,23.57
2022-12-04T11:43:58.230Z,23.27
2022-12-04T11:46:29.480Z,23.63
2022-12-04T11:48:56.561Z,23.67
2022-12-04T11:51:34.543Z,22.20
2022-12-04T11:54:10.054Z,22.17
2022-12-04T11:56:41.582Z,25.97
2022-12-04T11:59:37.683Z,25.03
2022-12-04T12:02:19.995Z,22.60
2022-12-04T12:05:07.611Z,22.37
2022-12-04T12:07:44.884Z,24.40
2022-12-04T12:10:18.871Z,22.60
2022-12-04T12:12:56.030Z,21.93
2022-12-04T12:15:38.951Z,22.57
2022-12-04T12:18:20.948Z,27.20
2022-12-04T12:21:01.314Z,25.70
2022-12-04T12:23:43.902Z,23.70
2022-12-04T12:26:12.784Z,21.83
2022-12-04T12:28:58.365Z,23.40
2022-12-04T12:31:39.613Z,22.90
2022-12-04T12:34:11.955Z,21.80
2022-12-04T12:36:44.144Z,21.63
2022-12-04T12:39:16.079Z,20.10
2022-12-04T12:41:48.333Z,21.90
2022-12-04T12:44:20.246Z,23.47
2022-12-04T12:46:51.571Z,22.63
2022-12-04T12:49:24.390Z,20.90
2022-12-04T12:51:55.670Z,21.63
2022-12-04T12:54:31.348Z,22.00
2022-12-04T12:57:05.918Z,22.33
2022-12-04T12:59:34.143Z,20.17
2022-12-04T13:02:12.427Z,18.87
2022-12-04T13:04:43.076Z,19.97
2022-12-04T13:07:27.724Z,23.57
2022-12-04T13:10:00.526Z,22.03
2022-12-04T13:12:27.844Z,20.73
2022-12-04T13:14:54.886Z,20.47
2022-12-04T13:17:30.008Z,20.00
2022-12-04T13:19:59.578Z,17.77
2022-12-04T13:22:33.680Z,20.37
2022-12-04T13:25:15.917Z,22.57
2022-12-04T13:27:52.966Z,19.43
2022-12-04T13:30:22.392Z,21.57
2022-12-04T13:33:13.427Z,24.70
2022-12-04T13:36:05.942Z,22.93
2022-12-04T13:38:42.080Z,25.83
2022-12-04T13:41:15.343Z,24.37
2022-12-04T13:43:46.800Z,24.93
2022-12-04T13:46:28.467Z,30.43
2022-12-04T13:49:09.249Z,27.60
2022-12-04T13:51:38.778Z,25.53
2022-12-04T13:54:36.016Z,24.47
2022-12-04T13:57:21.958Z,26.03
2022-12-04T13:59:49.486Z,26.37
2022-12-04T14:02:29.754Z,23.00
2022-12-04T14:05:00.942Z,27.00
2022-12-04T14:07:31.271Z,25.47
2022-12-04T14:10:01.817Z,27.83
2022-12-04T14:12:31.742Z,25.90
2022-12-04T14:15:00.113Z,30.83
2022-12-04T14:17:29.676Z,26.27
2022-12-04T14:20:04.284Z,25.67
2022-12-04T14:22:41.952Z,26.27
2022-12-04T14:25:23.339Z,24.27
2022-12-04T14:27:53.009Z,22.83
2022-12-04T14:30:22.556Z,24.30
2022-12-04T14:32:52.458Z,21.87
2022-12-04T14:35:23.208Z,22.30
2022-12-04T14:37:55.067Z,23.23
2022-12-04T14:40:24.842Z,22.73
2022-12-04T14:42:52.673Z,24.13
2022-12-04T14:45:31.253Z,25.30
2022-12-04T14:48:17.661Z,25.17
2022-12-04T14:50:52.527Z,25.03
2022-12-04T14:53:27.893Z,24.47
2022-12-04T14:56:07.484Z,22.80
2022-12-04T14:58:38.797Z,24.63
2022-12-04T15:01:07.396Z,24.63
2022-12-04T15:03:36.515Z,23.97
2022-12-04T15:06:07.353Z,23.10
2022-12-04T15:08:34.651Z,25.67
2022-12-04T15:11:19.906Z,21.43
2022-12-04T15:13:46.831Z,22.83
2022-12-04T15:16:18.203Z,20.47
2022-12-04T15:18:55.252Z,21.47
2022-12-04T15:21:24.850Z,24.73
2022-12-04T15:23:51.950Z,23.73
2022-12-04T15:26:22.177Z,23.27
2022-12-04T15:28:51.608Z,22.53
2022-12-04T15:31:21.963Z,23.30
2022-12-04T15:33:51.836Z,24.67
2022-12-04T15:36:24.354Z,23.50
2022-12-04T15:38:53.478Z,25.53
2022-12-04T15:41:29.188Z,21.77
2022-12-04T15:43:56.273Z,22.77
2022-12-04T15:46:25.650Z,23.13
2022-12-04T15:49:03.972Z,24.00
2022-12-04T15:51:30.893Z,28.60
2022-12-04T15:53:59.180Z,24.73
2022-12-04T15:56:27.763Z,24.37
2022-12-04T15:58:57.394Z,25.10
2022-12-04T16:01:24.455Z,22.53
2022-12-04T16:03:53.370Z,23.10
2022-12-04T16:06:22.188Z,22.93
2022-12-04T16:08:51.412Z,22.03
2022-12-04T16:11:38.581Z,21.13
2022-12-04T16:14:15.354Z,23.93
2022-12-04T16:16:44.671Z,26.50
2022-12-04T16:19:17.330Z,22.13
2022-12-04T16:21:45.029Z,21.67
2022-12-04T16:24:13.669Z,20.37
2022-12-04T16:26:42.005Z,22.50
2022-12-04T16:29:09.093Z,22.70
2022-12-04T16:31:37.960Z,23.67
2022-12-04T16:34:04.991Z,21.27
2022-12-04T16:36:32.126Z,22.33
2022-12-04T16:38:59.042Z,22.40
2022-12-04T16:41:25.998Z,20.73
2022-12-04T16:43:56.046Z,19.23
2022-12-04T16:46:25.284Z,19.77
2022-12-04T16:48:52.415Z,19.83
2022-12-04T16:51:21.881Z,21.87
2022-12-04T16:53:49.397Z,21.73
2022-12-04T16:56:16.255Z,21.40
2022-12-04T16:58:43.765Z,21.40
2022-12-04T17:01:22.106Z,21.70
2022-12-04T17:03:49.410Z,22.67
2022-12-04T17:06:16.785Z,19.57
2022-12-04T17:08:43.918Z,20.70
2022-12-04T17:11:13.322Z,20.37
2022-12-04T17:13:40.446Z,22.17
2022-12-04T17:16:07.853Z,21.33
2022-12-04T17:18:36.522Z,22.50
2022-12-04T17:21:05.743Z,21.43
2022-12-04T17:23:32.810Z,20.63
2022-12-04T17:26:03.474Z,23.47
2022-12-04T17:28:31.141Z,21.43
2022-12-04T17:30:58.576Z,21.47
2022-12-04T17:33:25.681Z,22.90
2022-12-04T17:35:54.504Z,23.47
2022-12-04T17:38:21.542Z,24.77
2022-12-04T17:40:58.682Z,23.97
2022-12-04T17:43:25.859Z,22.93
2022-12-04T17:45:52.715Z,22.03
2022-12-04T17:48:19.633Z,23.73
2022-12-04T17:50:46.619Z,24.53
2022-12-04T17:53:15.364Z,27.07
2022-12-04T17:55:42.447Z,20.40
2022-12-04T17:58:09.375Z,23.37
2022-12-04T18:00:37.030Z,24.97
2022-12-04T18:03:04.361Z,25.77
2022-12-04T18:05:31.326Z,23.70
2022-12-04T18:07:58.338Z,25.17
2022-12-04T18:10:26.689Z,22.97
2022-12-04T18:12:53.595Z,26.07
2022-12-04T18:15:20.429Z,24.67
2022-12-04T18:17:47.332Z,25.73
2022-12-04T18:20:14.156Z,27.20
2022-12-04T18:22:41.050Z,24.80
2022-12-04T18:25:09.045Z,27.47
2022-12-04T18:27:41.649Z,27.83
2022-12-04T18:30:09.737Z,24.87
2022-12-04T18:32:36.888Z,23.23
2022-12-04T18:35:04.045Z,23.70
2022-12-04T18:37:30.977Z,23.33
2022-12-04T18:40:01.039Z,28.87
2022-12-04T18:42:31.736Z,28.30
2022-12-04T18:45:00.053Z,30.00
2022-12-04T18:47:26.969Z,33.90
2022-12-04T18:49:54.054Z,38.87
2022-12-04T18:52:21.153Z,44.27
2022-12-04T18:54:48.022Z,31.03
2022-12-04T18:57:14.879Z,29.17
2022-12-04T18:59:41.789Z,29.27
2022-12-04T19:02:10.682Z,36.10
2022-12-04T19:04:37.617Z,30.77
2022-12-04T19:07:05.256Z,30.20
2022-12-04T19:10:02.634Z,31.80
2022-12-04T19:12:18.983Z,36.47
2022-12-04T19:14:45.937Z,31.47
2022-12-04T19:17:15.107Z,33.50
2022-12-04T19:19:42.112Z,33.53
2022-12-04T19:22:09.260Z,31.40
2022-12-04T19:24:36.195Z,35.93
2022-12-04T19:27:10.811Z,34.77
2022-12-04T19:29:38.296Z,35.70
2022-12-04T19:32:05.596Z,36.27
2022-12-04T19:34:34.828Z,46.40
2022-12-04T19:37:02.350Z,89.43
2022-12-04T19:39:29.224Z,55.97
2022-12-04T19:41:56.345Z,47.50
2022-12-04T19:44:47.807Z,41.23
2022-12-04T19:47:10.262Z,46.97
2022-12-04T19:49:38.445Z,37.37
2022-12-04T19:52:06.540Z,34.43
2022-12-04T19:54:33.506Z,32.97
2022-12-04T19:57:01.161Z,33.87
2022-12-04T19:59:31.768Z,31.10
2022-12-04T20:02:03.023Z,33.33
2022-12-04T20:04:29.934Z,32.10
2022-12-04T20:06:58.193Z,32.13
2022-12-04T20:09:25.365Z,35.53
2022-12-04T20:11:52.406Z,32.33
2022-12-04T20:14:19.443Z,33.33
2022-12-04T20:16:46.684Z,33.40
2022-12-04T20:19:16.008Z,30.10
2022-12-04T20:21:43.839Z,31.07
2022-12-04T20:24:15.097Z,28.57
2022-12-04T20:26:43.524Z,29.03
2022-12-04T20:29:12.796Z,28.50
2022-12-04T20:31:42.438Z,31.90
2022-12-04T20:34:13.788Z,30.53
2022-12-04T20:36:42.691Z,29.20
2022-12-04T20:39:10.532Z,27.17
2022-12-04T20:41:39.335Z,31.07
2022-12-04T20:44:08.169Z,29.57
2022-12-04T20:46:36.723Z,27.80
2022-12-04T20:49:06.249Z,28.50
2022-12-04T20:51:35.758Z,30.03
2022-12-04T20:54:03.117Z,29.93
2022-12-04T20:56:31.750Z,29.83
2022-12-04T20:59:01.620Z,28.40
2022-12-04T21:01:29.390Z,29.20
2022-12-04T21:03:58.678Z,26.23
2022-12-04T21:06:34.489Z,24.10
2022-12-04T21:09:05.809Z,23.17
2022-12-04T21:11:35.421Z,19.97
2022-12-04T21:14:24.605Z,18.90
2022-12-04T21:16:52.374Z,20.27
2022-12-04T21:19:21.396Z,18.00
2022-12-04T21:21:48.635Z,19.53
2022-12-04T21:24:16.910Z,24.00
2022-12-04T21:26:44.427Z,22.53
2022-12-04T21:29:13.109Z,24.13
2022-12-04T21:31:40.165Z,24.20
2022-12-04T21:34:10.267Z,23.90
2022-12-04T21:36:37.172Z,21.20
2022-12-04T21:39:04.750Z,25.80
2022-12-04T21:41:50.130Z,25.93
2022-12-04T21:44:20.390Z,24.07
2022-12-04T21:46:48.445Z,22.87
2022-12-04T21:49:16.807Z,22.83
2022-12-04T21:51:59.885Z,21.20
2022-12-04T21:54:27.775Z,22.67
2022-12-04T21:56:55.571Z,21.33
2022-12-04T21:59:24.363Z,22.67
2022-12-04T22:01:51.954Z,21.13
2022-12-04T22:04:19.083Z,23.73
2022-12-04T22:06:46.024Z,27.37
2022-12-04T22:09:13.291Z,21.40
2022-12-04T22:11:43.327Z,21.87
2022-12-04T22:14:11.089Z,22.23
2022-12-04T22:16:43.559Z,22.33
2022-12-04T22:19:11.515Z,22.47
2022-12-04T22:21:38.919Z,21.33
2022-12-04T22:24:06.976Z,21.10
2022-12-04T22:26:34.195Z,19.97
2022-12-04T22:29:01.889Z,22.43
2022-12-04T22:31:30.667Z,24.30
2022-12-04T22:34:00.285Z,22.27
2022-12-04T22:36:29.735Z,21.27
2022-12-04T22:39:12.642Z,21.23
2022-12-04T22:41:39.569Z,15.43
2022-12-04T22:44:06.696Z,15.30
2022-12-04T22:46:34.163Z,14.13
2022-12-04T22:49:02.510Z,14.77
2022-12-04T22:51:29.824Z,15.80
2022-12-04T22:53:58.333Z,14.60
2022-12-04T22:56:26.752Z,14.73
2022-12-04T22:58:54.236Z,13.53
2022-12-04T23:01:23.577Z,13.47
2022-12-04T23:03:51.556Z,13.87
2022-12-04T23:06:21.895Z,13.13
2022-12-04T23:08:48.890Z,14.03
2022-12-04T23:11:18.425Z,15.77
2022-12-04T23:13:50.443Z,15.23
2022-12-04T23:16:20.328Z,16.37
2022-12-04T23:18:47.814Z,13.77
2022-12-04T23:21:16.084Z,15.70
2022-12-04T23:23:45.779Z,15.07
2022-12-04T23:26:14.800Z,14.83
2022-12-04T23:28:42.160Z,13.77
2022-12-04T23:31:10.803Z,14.20
2022-12-04T23:33:38.605Z,15.97
2022-12-04T23:36:07.341Z,15.83
2022-12-04T23:38:35.571Z,14.80
2022-12-04T23:41:05.327Z,17.53
2022-12-04T23:43:32.975Z,17.03
2022-12-04T23:45:59.915Z,16.37
2022-12-04T23:48:27.000Z,16.53
2022-12-04T23:50:54.348Z,16.30
2022-12-04T23:53:21.449Z,16.43
2022-12-04T23:55:55.869Z,15.63
2022-12-04T23:58:24.390Z,16.10
